Dallas, Indiana
Current Conditions -  °F | °C
As of 2:15 PM on Thursday 18 Dec 2014 (Local Time) from KHHG Reporting Station
Overcast Overcast  
Wind Chill: 21°   Ceiling: 2100
Heat Index: 26°   Visibility: 10mi
Dew Point: 21°   Wind: 5mph
Humidity: 80%   Direction: 290°WNW
Pressure: 30.22"   Gusts: NA
Location:  40.8265°N, 85.6204°W
Report Text: KHHG 181915Z AUTO 29004KT 10SM OVC021 M03/M06 A3022 RMK AO2 T10321062
Loading
Personal Weather Stations






























Interactive Weather Map New forecast layout! Learn more

10-Day Weather Forecast

Advertisements
Track Severe Weather on mobile